sensor_id;sensor_type;location;lat;lon;timestamp;pressure;altitude;pressure_sealevel;temperature;humidity
57600;BME280;43426;43.594;24.334;2023-03-05T00:02:21;100795.53;;;4.83;92.51
57600;BME280;43426;43.594;24.334;2023-03-05T00:04:46;100794.56;;;4.94;92.05
57600;BME280;43426;43.594;24.334;2023-03-05T00:07:11;100793.47;;;4.97;92.11
57600;BME280;43426;43.594;24.334;2023-03-05T00:09:38;100797.13;;;4.95;92.22
57600;BME280;43426;43.594;24.334;2023-03-05T00:12:03;100781.34;;;4.92;92.63
57600;BME280;43426;43.594;24.334;2023-03-05T00:14:29;100785.91;;;5.02;92.37
57600;BME280;43426;43.594;24.334;2023-03-05T00:16:54;100781.97;;;5.06;91.47
57600;BME280;43426;43.594;24.334;2023-03-05T00:19:19;100789.16;;;5.05;91.94
57600;BME280;43426;43.594;24.334;2023-03-05T00:21:45;100774.69;;;5.18;90.51
57600;BME280;43426;43.594;24.334;2023-03-05T00:24:11;100777.69;;;5.34;88.16
57600;BME280;43426;43.594;24.334;2023-03-05T00:26:37;100775.50;;;5.49;86.36
57600;BME280;43426;43.594;24.334;2023-03-05T00:29:03;100769.47;;;5.57;86.43
57600;BME280;43426;43.594;24.334;2023-03-05T00:31:29;100766.94;;;5.55;86.94
57600;BME280;43426;43.594;24.334;2023-03-05T00:33:55;100759.00;;;5.44;87.91
57600;BME280;43426;43.594;24.334;2023-03-05T00:36:21;100758.13;;;5.34;89.59
57600;BME280;43426;43.594;24.334;2023-03-05T00:38:46;100759.94;;;5.23;90.15
57600;BME280;43426;43.594;24.334;2023-03-05T00:41:12;100753.28;;;5.18;89.98
57600;BME280;43426;43.594;24.334;2023-03-05T00:43:37;100750.50;;;5.19;89.02
57600;BME280;43426;43.594;24.334;2023-03-05T00:46:03;100740.94;;;5.26;87.96
57600;BME280;43426;43.594;24.334;2023-03-05T00:48:28;100741.91;;;5.25;87.79
57600;BME280;43426;43.594;24.334;2023-03-05T00:50:53;100739.25;;;5.25;87.84
57600;BME280;43426;43.594;24.334;2023-03-05T00:53:19;100738.25;;;5.17;88.66
57600;BME280;43426;43.594;24.334;2023-03-05T00:55:44;100734.81;;;5.05;89.50
57600;BME280;43426;43.594;24.334;2023-03-05T00:58:09;100733.22;;;4.92;89.94
57600;BME280;43426;43.594;24.334;2023-03-05T01:00:35;100736.81;;;4.82;89.91
57600;BME280;43426;43.594;24.334;2023-03-05T01:03:00;100738.19;;;4.76;90.27
57600;BME280;43426;43.594;24.334;2023-03-05T01:05:26;100735.34;;;4.68;90.37
57600;BME280;43426;43.594;24.334;2023-03-05T01:07:52;100735.09;;;4.71;90.42
57600;BME280;43426;43.594;24.334;2023-03-05T01:10:17;100732.69;;;4.68;90.94
57600;BME280;43426;43.594;24.334;2023-03-05T01:12:43;100724.97;;;4.43;91.82
57600;BME280;43426;43.594;24.334;2023-03-05T01:15:08;100723.06;;;4.34;92.16
57600;BME280;43426;43.594;24.334;2023-03-05T01:17:33;100726.22;;;4.39;91.92
57600;BME280;43426;43.594;24.334;2023-03-05T01:19:59;100717.13;;;4.52;90.10
57600;BME280;43426;43.594;24.334;2023-03-05T01:22:24;100717.06;;;4.63;89.29
57600;BME280;43426;43.594;24.334;2023-03-05T01:24:49;100719.91;;;4.71;88.85
57600;BME280;43426;43.594;24.334;2023-03-05T01:27:14;100716.50;;;4.69;88.86
57600;BME280;43426;43.594;24.334;2023-03-05T01:29:40;100719.03;;;4.61;88.99
57600;BME280;43426;43.594;24.334;2023-03-05T01:32:05;100720.91;;;4.49;89.53
57600;BME280;43426;43.594;24.334;2023-03-05T01:34:30;100716.09;;;4.43;89.76
57600;BME280;43426;43.594;24.334;2023-03-05T01:36:56;100725.22;;;4.40;89.97
57600;BME280;43426;43.594;24.334;2023-03-05T01:39:21;100724.03;;;4.33;90.20
57600;BME280;43426;43.594;24.334;2023-03-05T01:41:46;100726.41;;;4.26;90.57
57600;BME280;43426;43.594;24.334;2023-03-05T01:44:19;100731.34;;;4.10;91.84
57600;BME280;43426;43.594;24.334;2023-03-05T01:46:45;100732.78;;;4.14;91.89
57600;BME280;43426;43.594;24.334;2023-03-05T01:49:20;100732.47;;;4.07;92.27
57600;BME280;43426;43.594;24.334;2023-03-05T01:54:26;100730.53;;;3.77;94.61
57600;BME280;43426;43.594;24.334;2023-03-05T01:56:52;100729.34;;;3.70;94.62
57600;BME280;43426;43.594;24.334;2023-03-05T01:59:19;100720.94;;;3.42;95.68
57600;BME280;43426;43.594;24.334;2023-03-05T02:01:47;100723.13;;;3.37;95.82
57600;BME280;43426;43.594;24.334;2023-03-05T02:04:15;100723.13;;;3.37;95.99
57600;BME280;43426;43.594;24.334;2023-03-05T02:06:41;100716.06;;;3.47;95.09
57600;BME280;43426;43.594;24.334;2023-03-05T02:09:07;100718.50;;;3.50;94.99
57600;BME280;43426;43.594;24.334;2023-03-05T02:11:33;100714.47;;;3.56;94.29
57600;BME280;43426;43.594;24.334;2023-03-05T02:13:59;100715.94;;;3.49;94.49
57600;BME280;43426;43.594;24.334;2023-03-05T02:16:24;100710.72;;;3.47;94.68
57600;BME280;43426;43.594;24.334;2023-03-05T02:18:50;100712.16;;;3.51;94.38
57600;BME280;43426;43.594;24.334;2023-03-05T02:21:23;100716.53;;;3.52;93.74
57600;BME280;43426;43.594;24.334;2023-03-05T02:23:50;100713.81;;;3.64;93.03
57600;BME280;43426;43.594;24.334;2023-03-05T02:26:15;100713.81;;;3.64;92.96
57600;BME280;43426;43.594;24.334;2023-03-05T02:28:43;100711.41;;;3.61;92.77
57600;BME280;43426;43.594;24.334;2023-03-05T02:31:15;100717.25;;;3.54;93.28
57600;BME280;43426;43.594;24.334;2023-03-05T02:33:41;100711.72;;;3.46;94.10
57600;BME280;43426;43.594;24.334;2023-03-05T02:36:07;100718.28;;;3.42;93.96
57600;BME280;43426;43.594;24.334;2023-03-05T02:38:32;100718.28;;;3.42;94.00
57600;BME280;43426;43.594;24.334;2023-03-05T02:40:57;100721.91;;;3.41;93.76
57600;BME280;43426;43.594;24.334;2023-03-05T02:43:23;100726.16;;;3.32;94.23
57600;BME280;43426;43.594;24.334;2023-03-05T02:45:48;100730.28;;;3.25;94.45
57600;BME280;43426;43.594;24.334;2023-03-05T02:48:13;100725.72;;;3.16;94.79
57600;BME280;43426;43.594;24.334;2023-03-05T02:50:39;100725.81;;;3.14;94.99
57600;BME280;43426;43.594;24.334;2023-03-05T02:53:05;100728.25;;;3.17;94.91
57600;BME280;43426;43.594;24.334;2023-03-05T02:55:30;100734.31;;;3.19;94.62
57600;BME280;43426;43.594;24.334;2023-03-05T02:57:56;100729.59;;;3.23;94.40
57600;BME280;43426;43.594;24.334;2023-03-05T03:00:21;100731.84;;;3.39;93.34
57600;BME280;43426;43.594;24.334;2023-03-05T03:02:46;100717.28;;;3.43;92.97
57600;BME280;43426;43.594;24.334;2023-03-05T03:05:12;100725.53;;;3.40;93.26
57600;BME280;43426;43.594;24.334;2023-03-05T03:07:37;100721.66;;;3.44;92.89
57600;BME280;43426;43.594;24.334;2023-03-05T03:10:03;100719.34;;;3.51;92.34
57600;BME280;43426;43.594;24.334;2023-03-05T03:12:28;100718.72;;;3.47;92.61
57600;BME280;43426;43.594;24.334;2023-03-05T03:14:53;100729.75;;;3.54;92.01
57600;BME280;43426;43.594;24.334;2023-03-05T03:17:19;100727.47;;;3.49;92.28
57600;BME280;43426;43.594;24.334;2023-03-05T03:19:44;100723.22;;;3.47;92.39
57600;BME280;43426;43.594;24.334;2023-03-05T03:22:10;100730.88;;;3.40;92.81
57600;BME280;43426;43.594;24.334;2023-03-05T03:24:36;100725.41;;;3.41;92.76
57600;BME280;43426;43.594;24.334;2023-03-05T03:27:02;100715.84;;;3.39;92.65
57600;BME280;43426;43.594;24.334;2023-03-05T03:29:28;100727.50;;;3.38;92.66
57600;BME280;43426;43.594;24.334;2023-03-05T03:31:53;100721.38;;;3.47;92.54
57600;BME280;43426;43.594;24.334;2023-03-05T03:34:18;100720.69;;;3.45;92.74
57600;BME280;43426;43.594;24.334;2023-03-05T03:36:44;100721.25;;;3.49;92.64
57600;BME280;43426;43.594;24.334;2023-03-05T03:39:10;100729.66;;;3.44;92.87
57600;BME280;43426;43.594;24.334;2023-03-05T03:41:37;100724.66;;;3.51;92.58
57600;BME280;43426;43.594;24.334;2023-03-05T03:44:04;100726.97;;;3.44;92.45
57600;BME280;43426;43.594;24.334;2023-03-05T03:46:33;100726.75;;;3.36;92.71
57600;BME280;43426;43.594;24.334;2023-03-05T03:48:58;100728.25;;;3.29;92.92
57600;BME280;43426;43.594;24.334;2023-03-05T03:51:23;100727.72;;;3.35;93.00
57600;BME280;43426;43.594;24.334;2023-03-05T03:53:49;100728.81;;;3.32;92.78
57600;BME280;43426;43.594;24.334;2023-03-05T03:56:14;100734.53;;;3.28;92.92
57600;BME280;43426;43.594;24.334;2023-03-05T03:58:39;100728.38;;;3.27;92.84
57600;BME280;43426;43.594;24.334;2023-03-05T04:01:04;100728.81;;;3.32;92.40
57600;BME280;43426;43.594;24.334;2023-03-05T04:03:30;100735.72;;;3.35;91.91
57600;BME280;43426;43.594;24.334;2023-03-05T04:05:55;100730.78;;;3.30;91.99
57600;BME280;43426;43.594;24.334;2023-03-05T04:08:20;100735.50;;;3.27;91.17
57600;BME280;43426;43.594;24.334;2023-03-05T04:10:46;100731.06;;;2.93;91.19
57600;BME280;43426;43.594;24.334;2023-03-05T04:13:11;100729.34;;;2.69;92.68
57600;BME280;43426;43.594;24.334;2023-03-05T04:15:36;100732.72;;;2.60;93.10
57600;BME280;43426;43.594;24.334;2023-03-05T04:18:01;100731.41;;;2.54;93.49
57600;BME280;43426;43.594;24.334;2023-03-05T04:20:27;100737.53;;;2.32;94.68
57600;BME280;43426;43.594;24.334;2023-03-05T04:22:52;100736.78;;;2.19;94.41
57600;BME280;43426;43.594;24.334;2023-03-05T04:25:17;100739.72;;;2.27;94.18
57600;BME280;43426;43.594;24.334;2023-03-05T04:27:42;100725.75;;;2.12;95.31
57600;BME280;43426;43.594;24.334;2023-03-05T04:30:08;100727.97;;;2.30;95.49
57600;BME280;43426;43.594;24.334;2023-03-05T04:32:35;100721.81;;;2.41;95.08
57600;BME280;43426;43.594;24.334;2023-03-05T04:35:00;100718.81;;;2.57;94.76
57600;BME280;43426;43.594;24.334;2023-03-05T04:37:26;100722.19;;;2.36;95.59
57600;BME280;43426;43.594;24.334;2023-03-05T04:39:51;100720.28;;;2.49;96.26
57600;BME280;43426;43.594;24.334;2023-03-05T04:42:17;100717.25;;;2.77;95.15
57600;BME280;43426;43.594;24.334;2023-03-05T04:44:44;100724.28;;;2.66;94.67
57600;BME280;43426;43.594;24.334;2023-03-05T04:47:09;100725.47;;;2.51;94.91
57600;BME280;43426;43.594;24.334;2023-03-05T04:49:34;100725.81;;;2.35;93.79
57600;BME280;43426;43.594;24.334;2023-03-05T04:52:00;100732.47;;;1.94;94.64
57600;BME280;43426;43.594;24.334;2023-03-05T04:54:25;100724.94;;;1.87;95.65
57600;BME280;43426;43.594;24.334;2023-03-05T04:56:50;100724.69;;;1.79;96.32
57600;BME280;43426;43.594;24.334;2023-03-05T04:59:16;100724.84;;;1.89;97.33
57600;BME280;43426;43.594;24.334;2023-03-05T05:01:41;100727.25;;;1.92;97.41
57600;BME280;43426;43.594;24.334;2023-03-05T05:04:07;100721.13;;;2.03;97.45
57600;BME280;43426;43.594;24.334;2023-03-05T05:06:32;100723.22;;;2.11;97.22
57600;BME280;43426;43.594;24.334;2023-03-05T05:08:57;100726.88;;;2.32;97.14
57600;BME280;43426;43.594;24.334;2023-03-05T05:11:23;100727.53;;;2.47;96.66
57600;BME280;43426;43.594;24.334;2023-03-05T05:13:48;100721.75;;;2.65;95.82
57600;BME280;43426;43.594;24.334;2023-03-05T05:16:13;100721.25;;;2.82;94.69
57600;BME280;43426;43.594;24.334;2023-03-05T05:18:40;100720.13;;;2.96;93.80
57600;BME280;43426;43.594;24.334;2023-03-05T05:21:06;100725.63;;;3.06;93.06
57600;BME280;43426;43.594;24.334;2023-03-05T05:23:31;100729.09;;;3.18;92.39
57600;BME280;43426;43.594;24.334;2023-03-05T05:26:00;100731.00;;;3.38;91.04
57600;BME280;43426;43.594;24.334;2023-03-05T05:28:26;100724.19;;;3.46;90.42
57600;BME280;43426;43.594;24.334;2023-03-05T05:30:52;100728.75;;;3.66;89.34
57600;BME280;43426;43.594;24.334;2023-03-05T05:33:17;100737.25;;;3.92;88.06
57600;BME280;43426;43.594;24.334;2023-03-05T05:35:43;100740.97;;;4.01;87.69
57600;BME280;43426;43.594;24.334;2023-03-05T05:38:08;100742.88;;;4.11;86.51
57600;BME280;43426;43.594;24.334;2023-03-05T05:40:34;100741.44;;;4.28;86.48
57600;BME280;43426;43.594;24.334;2023-03-05T05:42:59;100743.31;;;4.58;85.07
57600;BME280;43426;43.594;24.334;2023-03-05T05:45:24;100749.25;;;4.62;84.77
57600;BME280;43426;43.594;24.334;2023-03-05T05:47:49;100741.50;;;4.89;83.39
57600;BME280;43426;43.594;24.334;2023-03-05T05:50:15;100743.28;;;5.10;82.62
57600;BME280;43426;43.594;24.334;2023-03-05T05:52:40;100749.66;;;5.28;82.20
57600;BME280;43426;43.594;24.334;2023-03-05T05:55:06;100751.38;;;5.39;83.00
57600;BME280;43426;43.594;24.334;2023-03-05T05:57:31;100756.06;;;5.47;82.59
57600;BME280;43426;43.594;24.334;2023-03-05T05:59:57;100753.13;;;5.70;80.21
57600;BME280;43426;43.594;24.334;2023-03-05T06:02:23;100755.25;;;5.76;79.67
57600;BME280;43426;43.594;24.334;2023-03-05T06:04:48;100763.31;;;5.86;79.21
57600;BME280;43426;43.594;24.334;2023-03-05T06:07:13;100758.94;;;5.75;78.95
57600;BME280;43426;43.594;24.334;2023-03-05T06:09:38;100758.22;;;5.73;79.29
57600;BME280;43426;43.594;24.334;2023-03-05T06:12:04;100760.59;;;5.76;79.10
57600;BME280;43426;43.594;24.334;2023-03-05T06:14:29;100763.72;;;5.91;78.76
57600;BME280;43426;43.594;24.334;2023-03-05T06:16:55;100760.53;;;6.07;78.63
57600;BME280;43426;43.594;24.334;2023-03-05T06:19:20;100760.94;;;6.32;77.04
57600;BME280;43426;43.594;24.334;2023-03-05T06:21:47;100763.75;;;6.10;77.26
57600;BME280;43426;43.594;24.334;2023-03-05T06:24:13;100760.78;;;6.33;77.54
57600;BME280;43426;43.594;24.334;2023-03-05T06:26:38;100748.81;;;6.27;76.92
57600;BME280;43426;43.594;24.334;2023-03-05T06:29:03;100749.66;;;6.28;77.11
57600;BME280;43426;43.594;24.334;2023-03-05T06:31:29;100749.47;;;6.39;77.12
57600;BME280;43426;43.594;24.334;2023-03-05T06:33:55;100755.72;;;6.40;76.87
57600;BME280;43426;43.594;24.334;2023-03-05T06:36:21;100753.00;;;6.59;77.08
57600;BME280;43426;43.594;24.334;2023-03-05T06:38:47;100750.25;;;6.79;76.28
57600;BME280;43426;43.594;24.334;2023-03-05T06:41:14;100755.72;;;6.87;75.31
57600;BME280;43426;43.594;24.334;2023-03-05T06:43:40;100756.53;;;6.97;75.28
57600;BME280;43426;43.594;24.334;2023-03-05T06:46:07;100758.31;;;7.07;75.64
57600;BME280;43426;43.594;24.334;2023-03-05T06:48:32;100756.00;;;7.22;75.90
57600;BME280;43426;43.594;24.334;2023-03-05T06:50:58;100757.59;;;7.42;72.58
57600;BME280;43426;43.594;24.334;2023-03-05T06:53:23;100760.66;;;7.47;72.97
57600;BME280;43426;43.594;24.334;2023-03-05T06:55:49;100760.91;;;7.54;73.40
57600;BME280;43426;43.594;24.334;2023-03-05T06:58:14;100765.84;;;7.77;72.22
57600;BME280;43426;43.594;24.334;2023-03-05T07:00:39;100769.06;;;7.98;72.15
57600;BME280;43426;43.594;24.334;2023-03-05T07:03:05;100766.53;;;8.15;71.46
57600;BME280;43426;43.594;24.334;2023-03-05T07:05:30;100765.00;;;8.12;71.66
57600;BME280;43426;43.594;24.334;2023-03-05T07:07:56;100768.31;;;8.24;70.62
57600;BME280;43426;43.594;24.334;2023-03-05T07:10:21;100762.28;;;8.48;70.84
57600;BME280;43426;43.594;24.334;2023-03-05T07:12:46;100766.06;;;8.56;69.65
57600;BME280;43426;43.594;24.334;2023-03-05T07:15:12;100764.78;;;8.68;69.12
57600;BME280;43426;43.594;24.334;2023-03-05T07:17:37;100767.72;;;8.83;68.09
57600;BME280;43426;43.594;24.334;2023-03-05T07:20:02;100768.19;;;9.05;67.62
57600;BME280;43426;43.594;24.334;2023-03-05T07:22:28;100771.78;;;9.13;67.35
57600;BME280;43426;43.594;24.334;2023-03-05T07:24:54;100765.06;;;9.17;66.77
57600;BME280;43426;43.594;24.334;2023-03-05T07:27:19;100768.16;;;9.31;65.24
57600;BME280;43426;43.594;24.334;2023-03-05T07:29:44;100766.31;;;9.40;66.04
57600;BME280;43426;43.594;24.334;2023-03-05T07:32:10;100759.00;;;9.58;65.79
57600;BME280;43426;43.594;24.334;2023-03-05T07:34:36;100767.09;;;9.75;65.72
57600;BME280;43426;43.594;24.334;2023-03-05T07:37:01;100757.69;;;9.95;64.48
57600;BME280;43426;43.594;24.334;2023-03-05T07:39:27;100764.28;;;10.01;63.20
57600;BME280;43426;43.594;24.334;2023-03-05T07:41:52;100755.00;;;10.03;63.66
57600;BME280;43426;43.594;24.334;2023-03-05T07:44:18;100759.41;;;10.04;63.49
57600;BME280;43426;43.594;24.334;2023-03-05T07:46:44;100754.19;;;10.19;64.04
57600;BME280;43426;43.594;24.334;2023-03-05T07:49:09;100751.00;;;10.41;63.86
57600;BME280;43426;43.594;24.334;2023-03-05T07:51:35;100758.44;;;10.55;61.74
57600;BME280;43426;43.594;24.334;2023-03-05T07:54:00;100757.72;;;10.61;62.22
57600;BME280;43426;43.594;24.334;2023-03-05T07:56:34;100763.47;;;10.75;60.08
57600;BME280;43426;43.594;24.334;2023-03-05T07:59:00;100755.34;;;10.83;61.58
57600;BME280;43426;43.594;24.334;2023-03-05T08:01:26;100760.41;;;10.78;60.63
57600;BME280;43426;43.594;24.334;2023-03-05T08:03:51;100762.41;;;10.84;61.30
57600;BME280;43426;43.594;24.334;2023-03-05T08:06:17;100748.22;;;10.90;61.51
57600;BME280;43426;43.594;24.334;2023-03-05T08:08:42;100750.84;;;11.15;60.55
57600;BME280;43426;43.594;24.334;2023-03-05T08:11:09;100747.09;;;11.24;59.44
57600;BME280;43426;43.594;24.334;2023-03-05T08:13:35;100745.28;;;11.16;59.51
57600;BME280;43426;43.594;24.334;2023-03-05T08:16:07;100740.94;;;10.99;60.75
57600;BME280;43426;43.594;24.334;2023-03-05T08:18:33;100741.34;;;11.27;60.06
57600;BME280;43426;43.594;24.334;2023-03-05T08:20:58;100737.41;;;11.38;59.97
57600;BME280;43426;43.594;24.334;2023-03-05T08:23:24;100739.31;;;11.61;57.66
57600;BME280;43426;43.594;24.334;2023-03-05T08:25:49;100740.97;;;11.38;54.85
57600;BME280;43426;43.594;24.334;2023-03-05T08:28:15;100734.88;;;11.36;53.71
57600;BME280;43426;43.594;24.334;2023-03-05T08:30:43;100733.81;;;11.46;55.26
57600;BME280;43426;43.594;24.334;2023-03-05T08:33:09;100738.06;;;11.40;52.47
57600;BME280;43426;43.594;24.334;2023-03-05T08:35:34;100739.31;;;11.29;53.90
57600;BME280;43426;43.594;24.334;2023-03-05T08:37:59;100730.28;;;11.45;55.01
57600;BME280;43426;43.594;24.334;2023-03-05T08:40:25;100730.97;;;11.70;55.00
57600;BME280;43426;43.594;24.334;2023-03-05T08:42:50;100729.09;;;11.71;54.53
57600;BME280;43426;43.594;24.334;2023-03-05T08:45:16;100727.03;;;12.04;53.60
57600;BME280;43426;43.594;24.334;2023-03-05T08:47:41;100733.75;;;12.32;52.24
57600;BME280;43426;43.594;24.334;2023-03-05T08:50:06;100734.50;;;12.02;53.85
57600;BME280;43426;43.594;24.334;2023-03-05T08:52:32;100733.00;;;12.23;53.39
57600;BME280;43426;43.594;24.334;2023-03-05T08:54:57;100723.53;;;12.42;52.87
57600;BME280;43426;43.594;24.334;2023-03-05T08:57:22;100725.56;;;12.40;50.04
57600;BME280;43426;43.594;24.334;2023-03-05T08:59:48;100718.34;;;12.32;50.51
57600;BME280;43426;43.594;24.334;2023-03-05T09:02:13;100723.19;;;12.22;50.30
57600;BME280;43426;43.594;24.334;2023-03-05T09:04:38;100715.47;;;12.34;50.37
57600;BME280;43426;43.594;24.334;2023-03-05T09:07:04;100717.56;;;12.62;50.53
57600;BME280;43426;43.594;24.334;2023-03-05T09:09:29;100719.06;;;12.64;49.21
57600;BME280;43426;43.594;24.334;2023-03-05T09:11:57;100721.09;;;12.47;49.26
57600;BME280;43426;43.594;24.334;2023-03-05T09:14:22;100709.13;;;12.41;47.39
57600;BME280;43426;43.594;24.334;2023-03-05T09:16:47;100711.19;;;12.54;50.06
57600;BME280;43426;43.594;24.334;2023-03-05T09:19:13;100717.84;;;12.52;46.33
57600;BME280;43426;43.594;24.334;2023-03-05T09:21:39;100705.63;;;12.56;48.41
57600;BME280;43426;43.594;24.334;2023-03-05T09:24:05;100711.97;;;12.63;47.10
57600;BME280;43426;43.594;24.334;2023-03-05T09:26:30;100713.00;;;12.62;47.91
57600;BME280;43426;43.594;24.334;2023-03-05T09:28:55;100709.38;;;12.70;47.62
57600;BME280;43426;43.594;24.334;2023-03-05T09:31:21;100700.59;;;12.68;46.49
57600;BME280;43426;43.594;24.334;2023-03-05T09:33:47;100707.66;;;12.54;47.32
57600;BME280;43426;43.594;24.334;2023-03-05T09:36:23;100686.84;;;12.69;46.84
57600;BME280;43426;43.594;24.334;2023-03-05T09:38:48;100689.56;;;12.84;48.04
57600;BME280;43426;43.594;24.334;2023-03-05T09:51:11;100664.41;;;13.35;40.70
57600;BME280;43426;43.594;24.334;2023-03-05T09:56:09;100666.13;;;12.91;41.00
57600;BME280;43426;43.594;24.334;2023-03-05T10:01:05;100657.16;;;13.06;43.06
57600;BME280;43426;43.594;24.334;2023-03-05T10:08:44;100647.78;;;13.60;41.68
57600;BME280;43426;43.594;24.334;2023-03-05T10:11:17;100642.66;;;13.72;40.24
57600;BME280;43426;43.594;24.334;2023-03-05T10:13:46;100640.59;;;13.52;41.31
57600;BME280;43426;43.594;24.334;2023-03-05T10:18:50;100624.75;;;13.77;39.18
57600;BME280;43426;43.594;24.334;2023-03-05T10:21:24;100644.00;;;13.39;40.61
57600;BME280;43426;43.594;24.334;2023-03-05T10:29:14;100621.69;;;13.59;42.42
57600;BME280;43426;43.594;24.334;2023-03-05T10:42:24;100611.22;;;13.56;39.62
57600;BME280;43426;43.594;24.334;2023-03-05T10:44:52;100611.53;;;12.73;40.69
57600;BME280;43426;43.594;24.334;2023-03-05T10:49:53;100598.28;;;12.78;41.54
57600;BME280;43426;43.594;24.334;2023-03-05T10:52:21;100588.09;;;12.65;42.58
57600;BME280;43426;43.594;24.334;2023-03-05T10:54:49;100602.41;;;12.59;43.05
57600;BME280;43426;43.594;24.334;2023-03-05T10:57:16;100588.28;;;12.49;41.86
57600;BME280;43426;43.594;24.334;2023-03-05T11:00:00;100593.72;;;12.34;43.31
57600;BME280;43426;43.594;24.334;2023-03-05T11:02:26;100594.38;;;12.51;42.25
57600;BME280;43426;43.594;24.334;2023-03-05T11:04:52;100594.91;;;12.61;43.67
57600;BME280;43426;43.594;24.334;2023-03-05T11:10:25;100581.63;;;12.81;41.68
57600;BME280;43426;43.594;24.334;2023-03-05T11:12:35;100585.34;;;12.95;41.87
57600;BME280;43426;43.594;24.334;2023-03-05T11:17:42;100571.81;;;12.95;42.67
57600;BME280;43426;43.594;24.334;2023-03-05T11:25:53;100560.53;;;12.76;42.48
57600;BME280;43426;43.594;24.334;2023-03-05T11:28:20;100562.41;;;12.76;42.03
57600;BME280;43426;43.594;24.334;2023-03-05T11:30:53;100560.41;;;12.85;41.98
57600;BME280;43426;43.594;24.334;2023-03-05T11:33:20;100556.59;;;12.79;41.50
57600;BME280;43426;43.594;24.334;2023-03-05T11:35:47;100550.66;;;12.69;42.04
57600;BME280;43426;43.594;24.334;2023-03-05T11:38:31;100548.59;;;12.71;41.85
57600;BME280;43426;43.594;24.334;2023-03-05T11:40:56;100548.53;;;12.64;41.03
57600;BME280;43426;43.594;24.334;2023-03-05T11:43:22;100538.63;;;12.71;42.61
57600;BME280;43426;43.594;24.334;2023-03-05T11:45:49;100540.22;;;13.02;41.05
57600;BME280;43426;43.594;24.334;2023-03-05T11:48:29;100534.59;;;12.82;40.24
57600;BME280;43426;43.594;24.334;2023-03-05T11:50:59;100525.63;;;13.03;40.95
57600;BME280;43426;43.594;24.334;2023-03-05T11:56:00;100516.50;;;13.04;41.28
57600;BME280;43426;43.594;24.334;2023-03-05T12:00:53;100518.25;;;12.97;40.00
57600;BME280;43426;43.594;24.334;2023-03-05T12:03:29;100517.06;;;13.00;39.65
57600;BME280;43426;43.594;24.334;2023-03-05T12:05:57;100506.91;;;13.30;40.41
57600;BME280;43426;43.594;24.334;2023-03-05T12:08:29;100500.50;;;13.59;39.12
57600;BME280;43426;43.594;24.334;2023-03-05T12:10:56;100507.34;;;13.49;38.07
57600;BME280;43426;43.594;24.334;2023-03-05T12:13:26;100505.13;;;13.37;38.31
57600;BME280;43426;43.594;24.334;2023-03-05T12:18:35;100491.94;;;13.84;38.20
57600;BME280;43426;43.594;24.334;2023-03-05T12:21:06;100495.13;;;13.94;40.02
57600;BME280;43426;43.594;24.334;2023-03-05T12:23:49;100488.28;;;13.99;37.59
57600;BME280;43426;43.594;24.334;2023-03-05T12:26:14;100484.16;;;13.74;37.33
57600;BME280;43426;43.594;24.334;2023-03-05T12:31:14;100475.06;;;13.32;37.69
57600;BME280;43426;43.594;24.334;2023-03-05T12:33:49;100477.13;;;13.52;39.68
57600;BME280;43426;43.594;24.334;2023-03-05T12:38:46;100468.91;;;13.73;38.25
57600;BME280;43426;43.594;24.334;2023-03-05T12:41:33;100464.22;;;13.89;38.23
57600;BME280;43426;43.594;24.334;2023-03-05T12:46:30;100465.63;;;13.50;36.40
57600;BME280;43426;43.594;24.334;2023-03-05T12:48:57;100469.25;;;13.57;37.54
57600;BME280;43426;43.594;24.334;2023-03-05T12:54:26;100453.75;;;13.29;37.23
57600;BME280;43426;43.594;24.334;2023-03-05T12:56:53;100449.94;;;13.17;38.42
57600;BME280;43426;43.594;24.334;2023-03-05T12:59:20;100442.06;;;13.00;35.79
57600;BME280;43426;43.594;24.334;2023-03-05T13:01:49;100446.69;;;12.85;36.33
57600;BME280;43426;43.594;24.334;2023-03-05T13:04:16;100442.00;;;12.72;36.29
57600;BME280;43426;43.594;24.334;2023-03-05T13:06:45;100450.31;;;12.70;36.71
57600;BME280;43426;43.594;24.334;2023-03-05T13:09:44;100454.16;;;12.61;37.12
57600;BME280;43426;43.594;24.334;2023-03-05T13:12:02;100450.53;;;12.54;37.76
57600;BME280;43426;43.594;24.334;2023-03-05T13:14:32;100442.56;;;12.67;37.50
57600;BME280;43426;43.594;24.334;2023-03-05T13:16:59;100436.44;;;12.80;37.95
57600;BME280;43426;43.594;24.334;2023-03-05T13:19:25;100435.44;;;12.81;37.14
57600;BME280;43426;43.594;24.334;2023-03-05T13:21:58;100439.09;;;12.73;36.41
57600;BME280;43426;43.594;24.334;2023-03-05T13:24:23;100431.34;;;12.70;37.12
57600;BME280;43426;43.594;24.334;2023-03-05T13:26:49;100431.22;;;12.78;36.90
57600;BME280;43426;43.594;24.334;2023-03-05T13:29:15;100434.06;;;12.70;35.95
57600;BME280;43426;43.594;24.334;2023-03-05T13:31:48;100432.66;;;12.74;35.64
57600;BME280;43426;43.594;24.334;2023-03-05T13:36:56;100421.44;;;12.56;36.89
57600;BME280;43426;43.594;24.334;2023-03-05T13:39:24;100419.03;;;12.68;37.15
57600;BME280;43426;43.594;24.334;2023-03-05T13:41:55;100422.56;;;12.47;36.66
57600;BME280;43426;43.594;24.334;2023-03-05T13:44:21;100413.66;;;12.31;37.37
57600;BME280;43426;43.594;24.334;2023-03-05T13:46:46;100423.59;;;12.24;37.40
57600;BME280;43426;43.594;24.334;2023-03-05T13:51:44;100433.25;;;12.18;36.30
57600;BME280;43426;43.594;24.334;2023-03-05T13:54:13;100421.63;;;12.18;36.87
57600;BME280;43426;43.594;24.334;2023-03-05T13:56:47;100430.84;;;12.08;37.36
57600;BME280;43426;43.594;24.334;2023-03-05T13:59:17;100433.94;;;12.05;37.08
57600;BME280;43426;43.594;24.334;2023-03-05T14:01:43;100428.09;;;12.02;37.78